Aviation Digital Data Service (ADDS)

Output produced by METARs form (1605 UTC 20 March 2019)
found at http://www.aviationweather.gov/metar/data/
 
Forecast for: TLPL (HEWANORRA INTL , LC)
Text: TAF TLPL 201100Z 2012/2112 09018KT 9999 SCT026
Forecast period: 1200 UTC 20 March 2019 to 1200 UTC 21 March 2019
Forecast type: FROM: standard forecast or significant change
Winds: from the E (90 degrees) at 21 MPH (18 knots; 9.3 m/s)
Visibility: 6 or more miles 10+ km)
Ceiling: at least 12,000 feet AGL
Clouds: scattered clouds at 2600 feet AGL
Weather: no significant weather forecast for this period
Text: TEMPO 2012/2024 SHRA
Forecast period: 1200 UTC 20 March 2019 to 0000 UTC 21 March 2019
Forecast type: TEMPORARY: The following changes expected for less than half the time period
Visibility: missing
Ceiling: unknown
Clouds: missing
Weather: SHRA  (rain showers)